Time;durP1;ratioP1;P1;durP2;ratioP2;P2;SDS_P1;SDS_P2;PMS_P1;PMS_P2;Temp;Humidity;BMP_temperature;BMP_pressure;BME280_temperature;BME280_humidity;BME280_pressure;Samples;Min_cycle;Max_cycle;Signal;HPM_P1;HPM_P2
2020/09/07 00:00:19;;;;;;;14.7;13.15;;;;;;;13.66;100;95568.55;;;;
2020/09/07 00:01:20;;;;;;;14.7;13.15;;;;;;;13.66;100;95568.55;;;;
2020/09/07 00:02:20;;;;;;;14.7;13.15;;;;;;;13.66;100;95568.55;;;;
2020/09/07 00:03:22;;;;;;;14.7;13.15;;;;;;;13.66;100;95568.55;;;;
2020/09/07 00:04:22;;;;;;;14.7;13.15;;;;;;;13.66;100;95568.55;;;;
2020/09/07 00:05:23;;;;;;;14.7;13.15;;;;;;;13.66;100;95568.55;;;;
2020/09/07 00:06:23;;;;;;;14.7;13.15;;;;;;;13.66;100;95568.55;;;;
2020/09/07 00:07:24;;;;;;;14.7;13.15;;;;;;;13.66;100;95568.55;;;;
2020/09/07 00:08:24;;;;;;;14.7;13.15;;;;;;;13.66;100;95568.55;;;;
2020/09/07 00:09:25;;;;;;;14.7;13.15;;;;;;;13.66;100;95568.55;;;;
2020/09/07 00:10:25;;;;;;;14.7;13.15;;;;;;;13.66;100;95568.55;;;;
2020/09/07 00:11:26;;;;;;;13.7;12.4;;;;;;;13.57;100;95553.34;;;;
2020/09/07 00:12:26;;;;;;;13.7;12.4;;;;;;;13.57;100;95553.34;;;;
2020/09/07 00:13:27;;;;;;;13.7;12.4;;;;;;;13.57;100;95553.34;;;;
2020/09/07 00:14:27;;;;;;;13.7;12.4;;;;;;;13.57;100;95553.34;;;;
2020/09/07 00:15:28;;;;;;;13.7;12.4;;;;;;;13.57;100;95553.34;;;;
2020/09/07 00:16:28;;;;;;;13.7;12.4;;;;;;;13.57;100;95553.34;;;;
2020/09/07 00:17:28;;;;;;;13.7;12.4;;;;;;;13.57;100;95553.34;;;;
2020/09/07 00:18:29;;;;;;;13.7;12.4;;;;;;;13.57;100;95553.34;;;;
2020/09/07 00:19:34;;;;;;;13.7;12.4;;;;;;;13.57;100;95553.34;;;;
2020/09/07 00:20:35;;;;;;;13.7;12.4;;;;;;;13.57;100;95553.34;;;;
2020/09/07 00:21:35;;;;;;;13.05;11.75;;;;;;;13.54;100;95547.06;;;;
2020/09/07 00:22:37;;;;;;;13.05;11.75;;;;;;;13.54;100;95547.06;;;;
2020/09/07 00:23:37;;;;;;;13.05;11.75;;;;;;;13.54;100;95547.06;;;;
2020/09/07 00:24:38;;;;;;;13.05;11.75;;;;;;;13.54;100;95547.06;;;;
2020/09/07 00:25:38;;;;;;;13.05;11.75;;;;;;;13.54;100;95547.06;;;;
2020/09/07 00:26:39;;;;;;;13.05;11.75;;;;;;;13.54;100;95547.06;;;;
2020/09/07 00:27:39;;;;;;;13.05;11.75;;;;;;;13.54;100;95547.06;;;;
2020/09/07 00:28:40;;;;;;;13.05;11.75;;;;;;;13.54;100;95547.06;;;;
2020/09/07 00:29:40;;;;;;;13.05;11.75;;;;;;;13.54;100;95547.06;;;;
2020/09/07 00:30:41;;;;;;;13.05;11.75;;;;;;;13.54;100;95547.06;;;;
2020/09/07 00:31:41;;;;;;;13.05;11.75;;;;;;;13.54;100;95547.06;;;;
2020/09/07 00:32:42;;;;;;;13;11.4;;;;;;;13.44;100;95531.59;;;;
2020/09/07 00:33:42;;;;;;;13;11.4;;;;;;;13.44;100;95531.59;;;;
2020/09/07 00:34:42;;;;;;;13;11.4;;;;;;;13.44;100;95531.59;;;;
2020/09/07 00:35:43;;;;;;;13;11.4;;;;;;;13.44;100;95531.59;;;;
2020/09/07 00:36:44;;;;;;;13;11.4;;;;;;;13.44;100;95531.59;;;;
2020/09/07 00:37:44;;;;;;;13;11.4;;;;;;;13.44;100;95531.59;;;;
2020/09/07 00:38:45;;;;;;;13;11.4;;;;;;;13.44;100;95531.59;;;;
2020/09/07 00:39:45;;;;;;;13;11.4;;;;;;;13.44;100;95531.59;;;;
2020/09/07 00:40:46;;;;;;;13;11.4;;;;;;;13.44;100;95531.59;;;;
2020/09/07 00:41:46;;;;;;;13;11.4;;;;;;;13.44;100;95531.59;;;;
2020/09/07 00:42:47;;;;;;;11.55;10.35;;;;;;;13.39;100;95543.69;;;;
2020/09/07 00:43:47;;;;;;;11.55;10.35;;;;;;;13.39;100;95543.69;;;;
2020/09/07 00:44:48;;;;;;;11.55;10.35;;;;;;;13.39;100;95543.69;;;;
2020/09/07 00:45:48;;;;;;;11.55;10.35;;;;;;;13.39;100;95543.69;;;;
2020/09/07 00:46:49;;;;;;;11.55;10.35;;;;;;;13.39;100;95543.69;;;;
2020/09/07 00:47:49;;;;;;;11.55;10.35;;;;;;;13.39;100;95543.69;;;;
2020/09/07 00:48:50;;;;;;;11.55;10.35;;;;;;;13.39;100;95543.69;;;;
2020/09/07 00:49:50;;;;;;;11.55;10.35;;;;;;;13.39;100;95543.69;;;;
2020/09/07 00:50:51;;;;;;;11.55;10.35;;;;;;;13.39;100;95543.69;;;;
2020/09/07 00:51:51;;;;;;;11.55;10.35;;;;;;;13.39;100;95543.69;;;;
2020/09/07 00:52:52;;;;;;;11.55;10.35;;;;;;;13.39;100;95543.69;;;;
2020/09/07 00:53:53;;;;;;;11.8;10.1;;;;;;;13.25;100;95555.41;;;;
2020/09/07 00:54:54;;;;;;;11.8;10.1;;;;;;;13.25;100;95555.41;;;;
2020/09/07 00:55:55;;;;;;;11.8;10.1;;;;;;;13.25;100;95555.41;;;;
2020/09/07 00:57:29;;;;;;;11.8;10.1;;;;;;;13.25;100;95555.41;;;;
2020/09/07 00:58:30;;;;;;;11.8;10.1;;;;;;;13.25;100;95555.41;;;;
2020/09/07 00:59:31;;;;;;;11.8;10.1;;;;;;;13.25;100;95555.41;;;;
2020/09/07 01:00:31;;;;;;;11.8;10.1;;;;;;;13.25;100;95555.41;;;;
2020/09/07 01:01:32;;;;;;;11.8;10.1;;;;;;;13.25;100;95555.41;;;;
2020/09/07 01:02:32;;;;;;;11.8;10.1;;;;;;;13.25;100;95555.41;;;;
2020/09/07 01:03:40;;;;;;;11.8;10.1;;;;;;;13.25;100;95555.41;;;;
2020/09/07 01:04:45;;;;;;;11.5;10.3;;;;;;;13.21;100;95552.06;;;;
2020/09/07 01:05:46;;;;;;;11.5;10.3;;;;;;;13.21;100;95552.06;;;;
2020/09/07 01:06:50;;;;;;;11.5;10.3;;;;;;;13.21;100;95552.06;;;;
2020/09/07 01:07:56;;;;;;;11.5;10.3;;;;;;;13.21;100;95552.06;;;;
2020/09/07 01:09:03;;;;;;;11.5;10.3;;;;;;;13.21;100;95552.06;;;;
2020/09/07 01:10:07;;;;;;;11.5;10.3;;;;;;;13.21;100;95552.06;;;;
2020/09/07 01:11:08;;;;;;;11.5;10.3;;;;;;;13.21;100;95552.06;;;;
2020/09/07 01:12:12;;;;;;;11.5;10.3;;;;;;;13.21;100;95552.06;;;;
2020/09/07 01:13:18;;;;;;;11.5;10.3;;;;;;;13.21;100;95552.06;;;;
2020/09/07 01:14:27;;;;;;;11.2;9.349999;;;;;;;13.11;100;95539.59;;;;
2020/09/07 01:15:29;;;;;;;11.2;9.349999;;;;;;;13.11;100;95539.59;;;;
2020/09/07 01:16:31;;;;;;;11.2;9.349999;;;;;;;13.11;100;95539.59;;;;
2020/09/07 01:17:34;;;;;;;11.2;9.349999;;;;;;;13.11;100;95539.59;;;;
2020/09/07 01:18:34;;;;;;;11.2;9.349999;;;;;;;13.11;100;95539.59;;;;
2020/09/07 01:19:35;;;;;;;11.2;9.349999;;;;;;;13.11;100;95539.59;;;;
2020/09/07 01:20:35;;;;;;;11.2;9.349999;;;;;;;13.11;100;95539.59;;;;
2020/09/07 01:21:36;;;;;;;11.2;9.349999;;;;;;;13.11;100;95539.59;;;;
2020/09/07 01:22:37;;;;;;;11.2;9.349999;;;;;;;13.11;100;95539.59;;;;
2020/09/07 01:23:37;;;;;;;11.2;9.349999;;;;;;;13.11;100;95539.59;;;;
2020/09/07 01:24:38;;;;;;;11.2;9.349999;;;;;;;13.11;100;95539.59;;;;
2020/09/07 01:25:38;;;;;;;11.6;10.25;;;;;;;13.09;100;95561.64;;;;
2020/09/07 01:26:39;;;;;;;11.6;10.25;;;;;;;13.09;100;95561.64;;;;
2020/09/07 01:27:40;;;;;;;11.6;10.25;;;;;;;13.09;100;95561.64;;;;
2020/09/07 01:28:41;;;;;;;11.6;10.25;;;;;;;13.09;100;95561.64;;;;
2020/09/07 01:29:41;;;;;;;11.6;10.25;;;;;;;13.09;100;95561.64;;;;
2020/09/07 01:30:42;;;;;;;11.6;10.25;;;;;;;13.09;100;95561.64;;;;
2020/09/07 01:31:42;;;;;;;11.6;10.25;;;;;;;13.09;100;95561.64;;;;
2020/09/07 01:32:43;;;;;;;11.6;10.25;;;;;;;13.09;100;95561.64;;;;
2020/09/07 01:33:43;;;;;;;11.6;10.25;;;;;;;13.09;100;95561.64;;;;
2020/09/07 01:34:44;;;;;;;11.6;10.25;;;;;;;13.09;100;95561.64;;;;
2020/09/07 01:35:44;;;;;;;11.6;10.25;;;;;;;13.09;100;95561.64;;;;
2020/09/07 01:36:45;;;;;;;12.3;10;;;;;;;12.98;100;95562.9;;;;
2020/09/07 01:37:46;;;;;;;12.3;10;;;;;;;12.98;100;95562.9;;;;
2020/09/07 01:38:46;;;;;;;12.3;10;;;;;;;12.98;100;95562.9;;;;
2020/09/07 01:39:47;;;;;;;12.3;10;;;;;;;12.98;100;95562.9;;;;
2020/09/07 01:40:47;;;;;;;12.3;10;;;;;;;12.98;100;95562.9;;;;
2020/09/07 01:41:48;;;;;;;12.3;10;;;;;;;12.98;100;95562.9;;;;
2020/09/07 01:42:48;;;;;;;12.3;10;;;;;;;12.98;100;95562.9;;;;
2020/09/07 01:43:49;;;;;;;12.3;10;;;;;;;12.98;100;95562.9;;;;
2020/09/07 01:44:49;;;;;;;12.3;10;;;;;;;12.98;100;95562.9;;;;
2020/09/07 01:45:50;;;;;;;12.3;10;;;;;;;12.98;100;95562.9;;;;
2020/09/07 01:46:50;;;;;;;11.55;10.35;;;;;;;12.97;100;95563.53;;;;
2020/09/07 01:47:51;;;;;;;11.55;10.35;;;;;;;12.97;100;95563.53;;;;
2020/09/07 01:48:51;;;;;;;11.55;10.35;;;;;;;12.97;100;95563.53;;;;
2020/09/07 01:49:52;;;;;;;11.55;10.35;;;;;;;12.97;100;95563.53;;;;
2020/09/07 01:50:52;;;;;;;11.55;10.35;;;;;;;12.97;100;95563.53;;;;
2020/09/07 01:51:53;;;;;;;11.55;10.35;;;;;;;12.97;100;95563.53;;;;
2020/09/07 01:52:53;;;;;;;11.55;10.35;;;;;;;12.97;100;95563.53;;;;
2020/09/07 01:53:54;;;;;;;11.55;10.35;;;;;;;12.97;100;95563.53;;;;
2020/09/07 01:54:54;;;;;;;11.55;10.35;;;;;;;12.97;100;95563.53;;;;
2020/09/07 01:55:55;;;;;;;11.55;10.35;;;;;;;12.97;100;95563.53;;;;
2020/09/07 01:56:56;;;;;;;11.55;10.35;;;;;;;12.97;100;95563.53;;;;
2020/09/07 01:57:56;;;;;;;12.8;11.45;;;;;;;12.89;100;95560.3;;;;
2020/09/07 01:58:56;;;;;;;12.8;11.45;;;;;;;12.89;100;95560.3;;;;
2020/09/07 01:59:57;;;;;;;12.8;11.45;;;;;;;12.89;100;95560.3;;;;
2020/09/07 02:00:57;;;;;;;12.8;11.45;;;;;;;12.89;100;95560.3;;;;
2020/09/07 02:01:58;;;;;;;12.8;11.45;;;;;;;12.89;100;95560.3;;;;
2020/09/07 02:02:58;;;;;;;12.8;11.45;;;;;;;12.89;100;95560.3;;;;
2020/09/07 02:03:59;;;;;;;12.8;11.45;;;;;;;12.89;100;95560.3;;;;
2020/09/07 02:04:59;;;;;;;12.8;11.45;;;;;;;12.89;100;95560.3;;;;
2020/09/07 02:06:00;;;;;;;12.8;11.45;;;;;;;12.89;100;95560.3;;;;
2020/09/07 02:07:00;;;;;;;12.8;11.45;;;;;;;12.89;100;95560.3;;;;
2020/09/07 02:08:01;;;;;;;13.6;12.3;;;;;;;12.86;100;95572.02;;;;
2020/09/07 02:09:02;;;;;;;13.6;12.3;;;;;;;12.86;100;95572.02;;;;
2020/09/07 02:10:04;;;;;;;13.6;12.3;;;;;;;12.86;100;95572.02;;;;
2020/09/07 02:11:05;;;;;;;13.6;12.3;;;;;;;12.86;100;95572.02;;;;
2020/09/07 02:12:05;;;;;;;13.6;12.3;;;;;;;12.86;100;95572.02;;;;
2020/09/07 02:13:06;;;;;;;13.6;12.3;;;;;;;12.86;100;95572.02;;;;
2020/09/07 02:14:06;;;;;;;13.6;12.3;;;;;;;12.86;100;95572.02;;;;
2020/09/07 02:15:07;;;;;;;13.6;12.3;;;;;;;12.86;100;95572.02;;;;
2020/09/07 02:16:08;;;;;;;13.6;12.3;;;;;;;12.86;100;95572.02;;;;
2020/09/07 02:17:08;;;;;;;13.6;12.3;;;;;;;12.86;100;95572.02;;;;
2020/09/07 02:18:09;;;;;;;13.6;12.3;;;;;;;12.86;100;95572.02;;;;
2020/09/07 02:19:09;;;;;;;15.9;13.45;;;;;;;12.78;100;95575.13;;;;
2020/09/07 02:20:10;;;;;;;15.9;13.45;;;;;;;12.78;100;95575.13;;;;
2020/09/07 02:21:10;;;;;;;15.9;13.45;;;;;;;12.78;100;95575.13;;;;
2020/09/07 02:22:11;;;;;;;15.9;13.45;;;;;;;12.78;100;95575.13;;;;
2020/09/07 02:23:11;;;;;;;15.9;13.45;;;;;;;12.78;100;95575.13;;;;
2020/09/07 02:24:12;;;;;;;15.9;13.45;;;;;;;12.78;100;95575.13;;;;
2020/09/07 02:25:12;;;;;;;15.9;13.45;;;;;;;12.78;100;95575.13;;;;
2020/09/07 02:26:13;;;;;;;15.9;13.45;;;;;;;12.78;100;95575.13;;;;
2020/09/07 02:27:13;;;;;;;15.9;13.45;;;;;;;12.78;100;95575.13;;;;
2020/09/07 02:28:14;;;;;;;15.9;13.45;;;;;;;12.78;100;95575.13;;;;
2020/09/07 02:29:14;;;;;;;16.75;14.5;;;;;;;12.79;100;95570.54;;;;
2020/09/07 02:30:15;;;;;;;16.75;14.5;;;;;;;12.79;100;95570.54;;;;
2020/09/07 02:31:15;;;;;;;16.75;14.5;;;;;;;12.79;100;95570.54;;;;
2020/09/07 02:32:16;;;;;;;16.75;14.5;;;;;;;12.79;100;95570.54;;;;
2020/09/07 02:33:16;;;;;;;16.75;14.5;;;;;;;12.79;100;95570.54;;;;
2020/09/07 02:34:17;;;;;;;16.75;14.5;;;;;;;12.79;100;95570.54;;;;
2020/09/07 02:35:17;;;;;;;16.75;14.5;;;;;;;12.79;100;95570.54;;;;
2020/09/07 02:36:18;;;;;;;16.75;14.5;;;;;;;12.79;100;95570.54;;;;
2020/09/07 02:37:18;;;;;;;16.75;14.5;;;;;;;12.79;100;95570.54;;;;
2020/09/07 02:38:19;;;;;;;16.75;14.5;;;;;;;12.79;100;95570.54;;;;
2020/09/07 02:39:19;;;;;;;16.75;14.5;;;;;;;12.79;100;95570.54;;;;
2020/09/07 02:40:20;;;;;;;16.3;14.55;;;;;;;12.74;100;95563.12;;;;
2020/09/07 02:41:20;;;;;;;16.3;14.55;;;;;;;12.74;100;95563.12;;;;
2020/09/07 02:42:20;;;;;;;16.3;14.55;;;;;;;12.74;100;95563.12;;;;
2020/09/07 02:43:21;;;;;;;16.3;14.55;;;;;;;12.74;100;95563.12;;;;
2020/09/07 02:44:21;;;;;;;16.3;14.55;;;;;;;12.74;100;95563.12;;;;
2020/09/07 02:45:22;;;;;;;16.3;14.55;;;;;;;12.74;100;95563.12;;;;
2020/09/07 02:46:22;;;;;;;16.3;14.55;;;;;;;12.74;100;95563.12;;;;
2020/09/07 02:47:23;;;;;;;16.3;14.55;;;;;;;12.74;100;95563.12;;;;
2020/09/07 02:48:23;;;;;;;16.3;14.55;;;;;;;12.74;100;95563.12;;;;
2020/09/07 02:49:24;;;;;;;16.3;14.55;;;;;;;12.74;100;95563.12;;;;
2020/09/07 02:50:24;;;;;;;16.3;14.55;;;;;;;12.74;100;95563.12;;;;
2020/09/07 02:51:25;;;;;;;17.65;15.75;;;;;;;12.78;100;95576.07;;;;
2020/09/07 02:52:25;;;;;;;17.65;15.75;;;;;;;12.78;100;95576.07;;;;
2020/09/07 02:53:26;;;;;;;17.65;15.75;;;;;;;12.78;100;95576.07;;;;
2020/09/07 02:54:26;;;;;;;17.65;15.75;;;;;;;12.78;100;95576.07;;;;
2020/09/07 02:55:27;;;;;;;17.65;15.75;;;;;;;12.78;100;95576.07;;;;
2020/09/07 02:56:27;;;;;;;17.65;15.75;;;;;;;12.78;100;95576.07;;;;
2020/09/07 02:57:28;;;;;;;17.65;15.75;;;;;;;12.78;100;95576.07;;;;
2020/09/07 02:58:28;;;;;;;17.65;15.75;;;;;;;12.78;100;95576.07;;;;
2020/09/07 02:59:29;;;;;;;17.65;15.75;;;;;;;12.78;100;95576.07;;;;
2020/09/07 03:00:29;;;;;;;17.65;15.75;;;;;;;12.78;100;95576.07;;;;
2020/09/07 03:01:29;;;;;;;18.55;16.1;;;;;;;12.74;100;95572.19;;;;
2020/09/07 03:02:30;;;;;;;18.55;16.1;;;;;;;12.74;100;95572.19;;;;
2020/09/07 03:03:31;;;;;;;18.55;16.1;;;;;;;12.74;100;95572.19;;;;
2020/09/07 03:04:31;;;;;;;18.55;16.1;;;;;;;12.74;100;95572.19;;;;
2020/09/07 03:05:32;;;;;;;18.55;16.1;;;;;;;12.74;100;95572.19;;;;
2020/09/07 03:06:32;;;;;;;18.55;16.1;;;;;;;12.74;100;95572.19;;;;
2020/09/07 03:07:33;;;;;;;18.55;16.1;;;;;;;12.74;100;95572.19;;;;
2020/09/07 03:12:21;;;;;;;18.55;16.1;;;;;;;12.74;100;95572.19;;;;
2020/09/07 03:13:21;;;;;;;19.6;17.55;;;;;;;12.79;100;95568.63;;;;
2020/09/07 03:14:22;;;;;;;19.6;17.55;;;;;;;12.79;100;95568.63;;;;
2020/09/07 03:15:22;;;;;;;19.6;17.55;;;;;;;12.79;100;95568.63;;;;
2020/09/07 03:16:23;;;;;;;19.6;17.55;;;;;;;12.79;100;95568.63;;;;
2020/09/07 03:17:23;;;;;;;19.6;17.55;;;;;;;12.79;100;95568.63;;;;
2020/09/07 03:18:24;;;;;;;19.6;17.55;;;;;;;12.79;100;95568.63;;;;
2020/09/07 03:19:24;;;;;;;19.6;17.55;;;;;;;12.79;100;95568.63;;;;
2020/09/07 03:20:25;;;;;;;19.6;17.55;;;;;;;12.79;100;95568.63;;;;
2020/09/07 03:21:25;;;;;;;19.6;17.55;;;;;;;12.79;100;95568.63;;;;
2020/09/07 03:22:25;;;;;;;19.6;17.55;;;;;;;12.79;100;95568.63;;;;
2020/09/07 03:23:26;;;;;;;19.65;17.55;;;;;;;12.79;100;95557.93;;;;
2020/09/07 03:24:26;;;;;;;19.65;17.55;;;;;;;12.79;100;95557.93;;;;
2020/09/07 03:25:27;;;;;;;19.65;17.55;;;;;;;12.79;100;95557.93;;;;
2020/09/07 03:26:27;;;;;;;19.65;17.55;;;;;;;12.79;100;95557.93;;;;
2020/09/07 03:27:28;;;;;;;19.65;17.55;;;;;;;12.79;100;95557.93;;;;
2020/09/07 03:28:28;;;;;;;19.65;17.55;;;;;;;12.79;100;95557.93;;;;
2020/09/07 03:29:29;;;;;;;19.65;17.55;;;;;;;12.79;100;95557.93;;;;
2020/09/07 03:30:30;;;;;;;19.65;17.55;;;;;;;12.79;100;95557.93;;;;
2020/09/07 03:31:30;;;;;;;19.65;17.55;;;;;;;12.79;100;95557.93;;;;
2020/09/07 03:32:31;;;;;;;19.65;17.55;;;;;;;12.79;100;95557.93;;;;
2020/09/07 03:33:32;;;;;;;24.65;19.9;;;;;;;12.82;100;95543.36;;;;
2020/09/07 03:34:32;;;;;;;24.65;19.9;;;;;;;12.82;100;95543.36;;;;
2020/09/07 03:35:32;;;;;;;24.65;19.9;;;;;;;12.82;100;95543.36;;;;
2020/09/07 03:36:33;;;;;;;24.65;19.9;;;;;;;12.82;100;95543.36;;;;
2020/09/07 03:37:33;;;;;;;24.65;19.9;;;;;;;12.82;100;95543.36;;;;
2020/09/07 03:38:34;;;;;;;24.65;19.9;;;;;;;12.82;100;95543.36;;;;
2020/09/07 03:39:34;;;;;;;24.65;19.9;;;;;;;12.82;100;95543.36;;;;
2020/09/07 03:40:35;;;;;;;24.65;19.9;;;;;;;12.82;100;95543.36;;;;
2020/09/07 03:41:35;;;;;;;24.65;19.9;;;;;;;12.82;100;95543.36;;;;
2020/09/07 03:42:36;;;;;;;24.65;19.9;;;;;;;12.82;100;95543.36;;;;
2020/09/07 03:43:37;;;;;;;24.65;19.9;;;;;;;12.82;100;95543.36;;;;
2020/09/07 03:44:39;;;;;;;24.1;19.7;;;;;;;12.79;100;95547.9;;;;
2020/09/07 03:45:40;;;;;;;24.1;19.7;;;;;;;12.79;100;95547.9;;;;
2020/09/07 03:46:42;;;;;;;24.1;19.7;;;;;;;12.79;100;95547.9;;;;
2020/09/07 03:47:46;;;;;;;24.1;19.7;;;;;;;12.79;100;95547.9;;;;
2020/09/07 03:48:50;;;;;;;24.1;19.7;;;;;;;12.79;100;95547.9;;;;
2020/09/07 03:49:51;;;;;;;24.1;19.7;;;;;;;12.79;100;95547.9;;;;
2020/09/07 03:50:53;;;;;;;24.1;19.7;;;;;;;12.79;100;95547.9;;;;
2020/09/07 03:51:54;;;;;;;24.1;19.7;;;;;;;12.79;100;95547.9;;;;
2020/09/07 03:52:56;;;;;;;24.1;19.7;;;;;;;12.79;100;95547.9;;;;
2020/09/07 03:54:01;;;;;;;24.1;19.7;;;;;;;12.79;100;95547.9;;;;
2020/09/07 03:55:03;;;;;;;21.55;19.25;;;;;;;12.83;100;95538.75;;;;
2020/09/07 03:56:04;;;;;;;21.55;19.25;;;;;;;12.83;100;95538.75;;;;
2020/09/07 03:57:04;;;;;;;21.55;19.25;;;;;;;12.83;100;95538.75;;;;
2020/09/07 03:58:05;;;;;;;21.55;19.25;;;;;;;12.83;100;95538.75;;;;
2020/09/07 03:59:05;;;;;;;21.55;19.25;;;;;;;12.83;100;95538.75;;;;
2020/09/07 04:00:06;;;;;;;21.55;19.25;;;;;;;12.83;100;95538.75;;;;
2020/09/07 04:01:06;;;;;;;21.55;19.25;;;;;;;12.83;100;95538.75;;;;
2020/09/07 04:02:07;;;;;;;21.55;19.25;;;;;;;12.83;100;95538.75;;;;
2020/09/07 04:03:08;;;;;;;21.55;19.25;;;;;;;12.83;100;95538.75;;;;
2020/09/07 04:04:08;;;;;;;21.55;19.25;;;;;;;12.83;100;95538.75;;;;
2020/09/07 04:05:09;;;;;;;21.55;19.25;;;;;;;12.83;100;95538.75;;;;
2020/09/07 04:06:12;;;;;;;22.85;19.4;;;;;;;12.77;100;95556.41;;;;
2020/09/07 04:07:17;;;;;;;22.85;19.4;;;;;;;12.77;100;95556.41;;;;
2020/09/07 04:08:18;;;;;;;22.85;19.4;;;;;;;12.77;100;95556.41;;;;
2020/09/07 04:09:19;;;;;;;22.85;19.4;;;;;;;12.77;100;95556.41;;;;
2020/09/07 04:10:20;;;;;;;22.85;19.4;;;;;;;12.77;100;95556.41;;;;
2020/09/07 04:11:22;;;;;;;22.85;19.4;;;;;;;12.77;100;95556.41;;;;
2020/09/07 04:12:22;;;;;;;22.85;19.4;;;;;;;12.77;100;95556.41;;;;
2020/09/07 04:13:24;;;;;;;22.85;19.4;;;;;;;12.77;100;95556.41;;;;
2020/09/07 04:14:25;;;;;;;22.85;19.4;;;;;;;12.77;100;95556.41;;;;
2020/09/07 04:15:28;;;;;;;22.85;19.4;;;;;;;12.77;100;95556.41;;;;
2020/09/07 04:16:35;;;;;;;23.6;19.65;;;;;;;12.69;100;95563.56;;;;
2020/09/07 04:17:35;;;;;;;23.6;19.65;;;;;;;12.69;100;95563.56;;;;
2020/09/07 04:18:36;;;;;;;23.6;19.65;;;;;;;12.69;100;95563.56;;;;
2020/09/07 04:19:41;;;;;;;23.6;19.65;;;;;;;12.69;100;95563.56;;;;
2020/09/07 04:20:42;;;;;;;23.6;19.65;;;;;;;12.69;100;95563.56;;;;
2020/09/07 04:21:42;;;;;;;23.6;19.65;;;;;;;12.69;100;95563.56;;;;
2020/09/07 04:22:43;;;;;;;23.6;19.65;;;;;;;12.69;100;95563.56;;;;
2020/09/07 04:23:44;;;;;;;23.6;19.65;;;;;;;12.69;100;95563.56;;;;
2020/09/07 04:24:45;;;;;;;23.6;19.65;;;;;;;12.69;100;95563.56;;;;
2020/09/07 04:25:46;;;;;;;23.6;19.65;;;;;;;12.69;100;95563.56;;;;
2020/09/07 04:26:47;;;;;;;23.25;18.3;;;;;;;12.43;100;95580.25;;;;
2020/09/07 04:27:48;;;;;;;23.25;18.3;;;;;;;12.43;100;95580.25;;;;
2020/09/07 04:28:49;;;;;;;23.25;18.3;;;;;;;12.43;100;95580.25;;;;
2020/09/07 04:29:49;;;;;;;23.25;18.3;;;;;;;12.43;100;95580.25;;;;
2020/09/07 04:30:51;;;;;;;23.25;18.3;;;;;;;12.43;100;95580.25;;;;
2020/09/07 04:31:52;;;;;;;23.25;18.3;;;;;;;12.43;100;95580.25;;;;
2020/09/07 04:32:53;;;;;;;23.25;18.3;;;;;;;12.43;100;95580.25;;;;
2020/09/07 04:33:54;;;;;;;23.25;18.3;;;;;;;12.43;100;95580.25;;;;
2020/09/07 04:34:55;;;;;;;23.25;18.3;;;;;;;12.43;100;95580.25;;;;
2020/09/07 04:35:56;;;;;;;23.25;18.3;;;;;;;12.43;100;95580.25;;;;
2020/09/07 04:36:57;;;;;;;23.25;18.3;;;;;;;12.43;100;95580.25;;;;
2020/09/07 04:37:58;;;;;;;20.75;17.55;;;;;;;12.24;100;95593.26;;;;
2020/09/07 04:38:59;;;;;;;20.75;17.55;;;;;;;12.24;100;95593.26;;;;
2020/09/07 04:40:01;;;;;;;20.75;17.55;;;;;;;12.24;100;95593.26;;;;
2020/09/07 04:41:04;;;;;;;20.75;17.55;;;;;;;12.24;100;95593.26;;;;
2020/09/07 04:42:05;;;;;;;20.75;17.55;;;;;;;12.24;100;95593.26;;;;
2020/09/07 04:43:06;;;;;;;20.75;17.55;;;;;;;12.24;100;95593.26;;;;
2020/09/07 04:44:08;;;;;;;20.75;17.55;;;;;;;12.24;100;95593.26;;;;
2020/09/07 04:45:10;;;;;;;20.75;17.55;;;;;;;12.24;100;95593.26;;;;
2020/09/07 04:46:14;;;;;;;20.75;17.55;;;;;;;12.24;100;95593.26;;;;
2020/09/07 04:47:15;;;;;;;20.75;17.55;;;;;;;12.24;100;95593.26;;;;
2020/09/07 04:48:16;;;;;;;25.35;18.7;;;;;;;12.06;100;95606.52;;;;
2020/09/07 04:49:17;;;;;;;25.35;18.7;;;;;;;12.06;100;95606.52;;;;
2020/09/07 04:50:18;;;;;;;25.35;18.7;;;;;;;12.06;100;95606.52;;;;
2020/09/07 04:51:19;;;;;;;25.35;18.7;;;;;;;12.06;100;95606.52;;;;
2020/09/07 04:52:20;;;;;;;25.35;18.7;;;;;;;12.06;100;95606.52;;;;
2020/09/07 04:53:20;;;;;;;25.35;18.7;;;;;;;12.06;100;95606.52;;;;
2020/09/07 04:54:23;;;;;;;25.35;18.7;;;;;;;12.06;100;95606.52;;;;
2020/09/07 04:55:24;;;;;;;25.35;18.7;;;;;;;12.06;100;95606.52;;;;
2020/09/07 04:56:25;;;;;;;25.35;18.7;;;;;;;12.06;100;95606.52;;;;
2020/09/07 04:57:42;;;;;;;25.35;18.7;;;;;;;12.06;100;95606.52;;;;
2020/09/07 04:58:57;;;;;;;21.6;18.3;;;;;;;12.01;100;95617.24;;;;
2020/09/07 05:00:27;;;;;;;21.6;18.3;;;;;;;12.01;100;95617.24;;;;
2020/09/07 05:01:42;;;;;;;21.6;18.3;;;;;;;12.01;100;95617.24;;;;
2020/09/07 05:02:56;;;;;;;21.6;18.3;;;;;;;12.01;100;95617.24;;;;
2020/09/07 05:04:03;;;;;;;21.6;18.3;;;;;;;12.01;100;95617.24;;;;
2020/09/07 05:05:07;;;;;;;21.6;18.3;;;;;;;12.01;100;95617.24;;;;
2020/09/07 05:06:08;;;;;;;21.6;18.3;;;;;;;12.01;100;95617.24;;;;
2020/09/07 05:07:09;;;;;;;21.6;18.3;;;;;;;12.01;100;95617.24;;;;
2020/09/07 05:08:14;;;;;;;21.6;18.3;;;;;;;12.01;100;95617.24;;;;
2020/09/07 05:09:15;;;;;;;20.15;17.3;;;;;;;11.92;100;95605.13;;;;
2020/09/07 05:10:17;;;;;;;20.15;17.3;;;;;;;11.92;100;95605.13;;;;
2020/09/07 05:11:18;;;;;;;20.15;17.3;;;;;;;11.92;100;95605.13;;;;
2020/09/07 05:12:23;;;;;;;20.15;17.3;;;;;;;11.92;100;95605.13;;;;
2020/09/07 05:13:24;;;;;;;20.15;17.3;;;;;;;11.92;100;95605.13;;;;
2020/09/07 05:14:30;;;;;;;20.15;17.3;;;;;;;11.92;100;95605.13;;;;
2020/09/07 05:15:31;;;;;;;20.15;17.3;;;;;;;11.92;100;95605.13;;;;
2020/09/07 05:16:31;;;;;;;20.15;17.3;;;;;;;11.92;100;95605.13;;;;
2020/09/07 05:17:31;;;;;;;20.15;17.3;;;;;;;11.92;100;95605.13;;;;
2020/09/07 05:18:32;;;;;;;20.15;17.3;;;;;;;11.92;100;95605.13;;;;
2020/09/07 05:19:32;;;;;;;20.15;17.3;;;;;;;11.92;100;95605.13;;;;
2020/09/07 05:20:43;;;;;;;20.1;17.8;;;;;;;12.02;100;95615.64;;;;
2020/09/07 05:21:45;;;;;;;20.1;17.8;;;;;;;12.02;100;95615.64;;;;
2020/09/07 05:22:45;;;;;;;20.1;17.8;;;;;;;12.02;100;95615.64;;;;
2020/09/07 05:23:46;;;;;;;20.1;17.8;;;;;;;12.02;100;95615.64;;;;
2020/09/07 05:24:46;;;;;;;20.1;17.8;;;;;;;12.02;100;95615.64;;;;
2020/09/07 05:25:47;;;;;;;20.1;17.8;;;;;;;12.02;100;95615.64;;;;
2020/09/07 05:26:57;;;;;;;20.1;17.8;;;;;;;12.02;100;95615.64;;;;
2020/09/07 05:27:59;;;;;;;20.1;17.8;;;;;;;12.02;100;95615.64;;;;
2020/09/07 05:29:00;;;;;;;20.1;17.8;;;;;;;12.02;100;95615.64;;;;
2020/09/07 05:30:00;;;;;;;20.1;17.8;;;;;;;12.02;100;95615.64;;;;
2020/09/07 05:31:01;;;;;;;21.35;18.95;;;;;;;12.24;100;95621.26;;;;
2020/09/07 05:32:17;;;;;;;21.35;18.95;;;;;;;12.24;100;95621.26;;;;
2020/09/07 05:33:17;;;;;;;21.35;18.95;;;;;;;12.24;100;95621.26;;;;
2020/09/07 05:34:19;;;;;;;21.35;18.95;;;;;;;12.24;100;95621.26;;;;
2020/09/07 05:35:19;;;;;;;21.35;18.95;;;;;;;12.24;100;95621.26;;;;
2020/09/07 05:36:20;;;;;;;21.35;18.95;;;;;;;12.24;100;95621.26;;;;
2020/09/07 05:37:22;;;;;;;21.35;18.95;;;;;;;12.24;100;95621.26;;;;
2020/09/07 05:38:25;;;;;;;21.35;18.95;;;;;;;12.24;100;95621.26;;;;
2020/09/07 05:39:27;;;;;;;21.35;18.95;;;;;;;12.24;100;95621.26;;;;
2020/09/07 05:40:28;;;;;;;21.35;18.95;;;;;;;12.24;100;95621.26;;;;
2020/09/07 05:41:34;;;;;;;26.15;21.5;;;;;;;12.7;100;95635.66;;;;
2020/09/07 05:42:34;;;;;;;26.15;21.5;;;;;;;12.7;100;95635.66;;;;
2020/09/07 05:43:35;;;;;;;26.15;21.5;;;;;;;12.7;100;95635.66;;;;
2020/09/07 05:44:42;;;;;;;26.15;21.5;;;;;;;12.7;100;95635.66;;;;
2020/09/07 05:45:43;;;;;;;26.15;21.5;;;;;;;12.7;100;95635.66;;;;
2020/09/07 05:46:44;;;;;;;26.15;21.5;;;;;;;12.7;100;95635.66;;;;
2020/09/07 05:47:46;;;;;;;26.15;21.5;;;;;;;12.7;100;95635.66;;;;
2020/09/07 05:48:47;;;;;;;26.15;21.5;;;;;;;12.7;100;95635.66;;;;
2020/09/07 05:49:47;;;;;;;26.15;21.5;;;;;;;12.7;100;95635.66;;;;
2020/09/07 05:50:53;;;;;;;26.15;21.5;;;;;;;12.7;100;95635.66;;;;
2020/09/07 05:51:54;;;;;;;20.8;18.6;;;;;;;13.14;100;95646.7;;;;
2020/09/07 05:53:02;;;;;;;20.8;18.6;;;;;;;13.14;100;95646.7;;;;
2020/09/07 05:54:05;;;;;;;20.8;18.6;;;;;;;13.14;100;95646.7;;;;
2020/09/07 05:55:05;;;;;;;20.8;18.6;;;;;;;13.14;100;95646.7;;;;
2020/09/07 05:56:06;;;;;;;20.8;18.6;;;;;;;13.14;100;95646.7;;;;
2020/09/07 05:57:07;;;;;;;20.8;18.6;;;;;;;13.14;100;95646.7;;;;
2020/09/07 05:58:08;;;;;;;20.8;18.6;;;;;;;13.14;100;95646.7;;;;
2020/09/07 05:59:10;;;;;;;20.8;18.6;;;;;;;13.14;100;95646.7;;;;
2020/09/07 06:00:10;;;;;;;20.8;18.6;;;;;;;13.14;100;95646.7;;;;
2020/09/07 06:01:11;;;;;;;20.8;18.6;;;;;;;13.14;100;95646.7;;;;
2020/09/07 06:02:12;;;;;;;20.8;18.6;;;;;;;13.14;100;95646.7;;;;
2020/09/07 06:03:12;;;;;;;16.75;15.15;;;;;;;13.41;100;95644.09;;;;
2020/09/07 06:04:14;;;;;;;16.75;15.15;;;;;;;13.41;100;95644.09;;;;
2020/09/07 06:05:24;;;;;;;16.75;15.15;;;;;;;13.41;100;95644.09;;;;
2020/09/07 06:06:25;;;;;;;16.75;15.15;;;;;;;13.41;100;95644.09;;;;
2020/09/07 06:07:27;;;;;;;16.75;15.15;;;;;;;13.41;100;95644.09;;;;
2020/09/07 06:08:28;;;;;;;16.75;15.15;;;;;;;13.41;100;95644.09;;;;
2020/09/07 06:09:30;;;;;;;16.75;15.15;;;;;;;13.41;100;95644.09;;;;
2020/09/07 06:10:31;;;;;;;16.75;15.15;;;;;;;13.41;100;95644.09;;;;
2020/09/07 06:11:31;;;;;;;16.75;15.15;;;;;;;13.41;100;95644.09;;;;
2020/09/07 06:12:32;;;;;;;16.75;15.15;;;;;;;13.41;100;95644.09;;;;
2020/09/07 06:13:32;;;;;;;13.7;12.25;;;;;;;13.48;100;95646.53;;;;